sensor_id;sensor_type;location;lat;lon;timestamp;P1;durP1;ratioP1;P2;durP2;ratioP2
789;SDS011;378;48.844;9.156;2023-04-25T00:02:13;2.20;;;1.60;;
789;SDS011;378;48.844;9.156;2023-04-25T00:04:45;2.20;;;1.52;;
789;SDS011;378;48.844;9.156;2023-04-25T00:07:13;4.07;;;1.65;;
789;SDS011;378;48.844;9.156;2023-04-25T00:09:42;3.60;;;1.77;;
789;SDS011;378;48.844;9.156;2023-04-25T00:12:09;2.53;;;1.50;;
789;SDS011;378;48.844;9.156;2023-04-25T00:14:36;4.90;;;1.70;;
789;SDS011;378;48.844;9.156;2023-04-25T00:17:03;3.22;;;1.60;;
789;SDS011;378;48.844;9.156;2023-04-25T00:19:30;2.28;;;1.70;;
789;SDS011;378;48.844;9.156;2023-04-25T00:21:57;3.05;;;1.75;;
789;SDS011;378;48.844;9.156;2023-04-25T00:24:25;2.53;;;1.58;;
789;SDS011;378;48.844;9.156;2023-04-25T00:26:53;2.25;;;1.63;;
789;SDS011;378;48.844;9.156;2023-04-25T00:29:19;2.33;;;1.73;;
789;SDS011;378;48.844;9.156;2023-04-25T00:31:46;5.05;;;1.80;;
789;SDS011;378;48.844;9.156;2023-04-25T00:34:13;4.47;;;1.80;;
789;SDS011;378;48.844;9.156;2023-04-25T00:36:40;1.92;;;1.55;;
789;SDS011;378;48.844;9.156;2023-04-25T00:39:07;3.45;;;1.67;;
789;SDS011;378;48.844;9.156;2023-04-25T00:41:34;2.05;;;1.50;;
789;SDS011;378;48.844;9.156;2023-04-25T00:44:03;4.50;;;1.40;;
789;SDS011;378;48.844;9.156;2023-04-25T00:46:31;6.13;;;1.48;;
789;SDS011;378;48.844;9.156;2023-04-25T00:48:58;3.58;;;1.60;;
789;SDS011;378;48.844;9.156;2023-04-25T00:51:25;2.83;;;1.60;;
789;SDS011;378;48.844;9.156;2023-04-25T00:53:52;2.15;;;1.30;;
789;SDS011;378;48.844;9.156;2023-04-25T00:56:19;1.88;;;1.30;;
789;SDS011;378;48.844;9.156;2023-04-25T00:58:47;2.58;;;1.50;;
789;SDS011;378;48.844;9.156;2023-04-25T01:01:17;2.13;;;1.40;;
789;SDS011;378;48.844;9.156;2023-04-25T01:03:44;1.52;;;1.40;;
789;SDS011;378;48.844;9.156;2023-04-25T01:06:14;2.40;;;1.70;;
789;SDS011;378;48.844;9.156;2023-04-25T01:08:42;8.60;;;2.30;;
789;SDS011;378;48.844;9.156;2023-04-25T01:11:09;1.75;;;1.27;;
789;SDS011;378;48.844;9.156;2023-04-25T01:13:36;3.15;;;1.70;;
789;SDS011;378;48.844;9.156;2023-04-25T01:16:03;2.00;;;1.30;;
789;SDS011;378;48.844;9.156;2023-04-25T01:18:32;2.80;;;1.50;;
789;SDS011;378;48.844;9.156;2023-04-25T01:21:03;4.00;;;1.80;;
789;SDS011;378;48.844;9.156;2023-04-25T01:23:33;2.00;;;1.40;;
789;SDS011;378;48.844;9.156;2023-04-25T01:26:00;3.33;;;1.60;;
789;SDS011;378;48.844;9.156;2023-04-25T01:28:27;5.90;;;1.75;;
789;SDS011;378;48.844;9.156;2023-04-25T01:30:54;6.30;;;1.70;;
789;SDS011;378;48.844;9.156;2023-04-25T01:33:22;2.03;;;1.58;;
789;SDS011;378;48.844;9.156;2023-04-25T01:35:49;4.40;;;1.90;;
789;SDS011;378;48.844;9.156;2023-04-25T01:38:18;3.53;;;1.83;;
789;SDS011;378;48.844;9.156;2023-04-25T01:40:45;6.45;;;1.90;;
789;SDS011;378;48.844;9.156;2023-04-25T01:43:12;6.38;;;1.67;;
789;SDS011;378;48.844;9.156;2023-04-25T01:45:39;4.40;;;1.90;;
789;SDS011;378;48.844;9.156;2023-04-25T01:48:06;4.97;;;2.20;;
789;SDS011;378;48.844;9.156;2023-04-25T01:50:33;4.40;;;1.85;;
789;SDS011;378;48.844;9.156;2023-04-25T01:53:00;2.22;;;1.60;;
789;SDS011;378;48.844;9.156;2023-04-25T01:55:29;5.40;;;2.20;;
789;SDS011;378;48.844;9.156;2023-04-25T01:57:56;2.47;;;1.90;;
789;SDS011;378;48.844;9.156;2023-04-25T02:00:23;7.95;;;2.20;;
789;SDS011;378;48.844;9.156;2023-04-25T02:02:50;4.63;;;2.00;;
789;SDS011;378;48.844;9.156;2023-04-25T02:05:18;4.63;;;2.20;;
789;SDS011;378;48.844;9.156;2023-04-25T02:07:45;4.15;;;1.85;;
789;SDS011;378;48.844;9.156;2023-04-25T02:10:13;2.30;;;1.98;;
789;SDS011;378;48.844;9.156;2023-04-25T02:12:41;5.50;;;2.35;;
789;SDS011;378;48.844;9.156;2023-04-25T02:15:08;3.78;;;2.15;;
789;SDS011;378;48.844;9.156;2023-04-25T02:17:35;3.17;;;1.90;;
789;SDS011;378;48.844;9.156;2023-04-25T02:20:02;4.50;;;2.28;;
789;SDS011;378;48.844;9.156;2023-04-25T02:22:30;3.45;;;2.17;;
789;SDS011;378;48.844;9.156;2023-04-25T02:24:59;5.07;;;2.38;;
789;SDS011;378;48.844;9.156;2023-04-25T02:27:25;3.40;;;2.58;;
789;SDS011;378;48.844;9.156;2023-04-25T02:29:53;5.93;;;2.45;;
789;SDS011;378;48.844;9.156;2023-04-25T02:32:20;6.03;;;2.60;;
789;SDS011;378;48.844;9.156;2023-04-25T02:34:47;4.60;;;2.53;;
789;SDS011;378;48.844;9.156;2023-04-25T02:37:14;5.10;;;3.00;;
789;SDS011;378;48.844;9.156;2023-04-25T02:39:41;6.10;;;3.10;;
789;SDS011;378;48.844;9.156;2023-04-25T02:42:08;5.13;;;3.17;;
789;SDS011;378;48.844;9.156;2023-04-25T02:44:34;7.90;;;3.40;;
789;SDS011;378;48.844;9.156;2023-04-25T02:47:03;4.40;;;3.50;;
789;SDS011;378;48.844;9.156;2023-04-25T02:49:30;5.32;;;3.10;;
789;SDS011;378;48.844;9.156;2023-04-25T02:51:56;9.07;;;3.60;;
789;SDS011;378;48.844;9.156;2023-04-25T02:54:23;8.32;;;3.25;;
789;SDS011;378;48.844;9.156;2023-04-25T02:56:50;6.55;;;3.05;;
789;SDS011;378;48.844;9.156;2023-04-25T02:59:17;6.82;;;3.75;;
789;SDS011;378;48.844;9.156;2023-04-25T03:01:44;8.02;;;3.88;;
789;SDS011;378;48.844;9.156;2023-04-25T03:04:12;6.18;;;3.33;;
789;SDS011;378;48.844;9.156;2023-04-25T03:06:40;5.93;;;3.65;;
789;SDS011;378;48.844;9.156;2023-04-25T03:09:06;5.65;;;3.72;;
789;SDS011;378;48.844;9.156;2023-04-25T03:11:33;6.22;;;3.53;;
789;SDS011;378;48.844;9.156;2023-04-25T03:14:00;7.45;;;3.95;;
789;SDS011;378;48.844;9.156;2023-04-25T03:16:27;8.90;;;4.05;;
789;SDS011;378;48.844;9.156;2023-04-25T03:18:54;5.90;;;3.70;;
789;SDS011;378;48.844;9.156;2023-04-25T03:21:22;6.95;;;3.70;;
789;SDS011;378;48.844;9.156;2023-04-25T03:23:50;6.22;;;3.17;;
789;SDS011;378;48.844;9.156;2023-04-25T03:26:16;7.72;;;3.25;;
789;SDS011;378;48.844;9.156;2023-04-25T03:28:43;7.10;;;4.45;;
789;SDS011;378;48.844;9.156;2023-04-25T03:31:10;5.72;;;3.58;;
789;SDS011;378;48.844;9.156;2023-04-25T03:33:37;6.55;;;3.55;;
789;SDS011;378;48.844;9.156;2023-04-25T03:36:04;7.75;;;4.03;;
789;SDS011;378;48.844;9.156;2023-04-25T03:38:33;10.75;;;3.88;;
789;SDS011;378;48.844;9.156;2023-04-25T03:41:00;7.70;;;4.20;;
789;SDS011;378;48.844;9.156;2023-04-25T03:43:27;5.15;;;3.90;;
789;SDS011;378;48.844;9.156;2023-04-25T03:45:53;4.90;;;3.70;;
789;SDS011;378;48.844;9.156;2023-04-25T03:48:20;9.55;;;4.05;;
789;SDS011;378;48.844;9.156;2023-04-25T03:50:49;7.60;;;3.88;;
789;SDS011;378;48.844;9.156;2023-04-25T03:53:16;5.80;;;4.22;;
789;SDS011;378;48.844;9.156;2023-04-25T03:55:44;8.32;;;4.38;;
789;SDS011;378;48.844;9.156;2023-04-25T03:58:11;10.13;;;4.15;;
789;SDS011;378;48.844;9.156;2023-04-25T04:00:38;7.60;;;4.00;;
789;SDS011;378;48.844;9.156;2023-04-25T04:03:05;8.55;;;4.90;;
789;SDS011;378;48.844;9.156;2023-04-25T04:05:32;9.90;;;4.78;;
789;SDS011;378;48.844;9.156;2023-04-25T04:07:58;7.10;;;4.50;;
789;SDS011;378;48.844;9.156;2023-04-25T04:10:25;7.25;;;4.65;;
789;SDS011;378;48.844;9.156;2023-04-25T04:12:53;11.10;;;4.38;;
789;SDS011;378;48.844;9.156;2023-04-25T04:15:20;5.80;;;3.72;;
789;SDS011;378;48.844;9.156;2023-04-25T04:17:47;6.07;;;4.07;;
789;SDS011;378;48.844;9.156;2023-04-25T04:20:14;7.57;;;4.38;;
789;SDS011;378;48.844;9.156;2023-04-25T04:22:41;7.53;;;4.47;;
789;SDS011;378;48.844;9.156;2023-04-25T04:25:08;6.35;;;4.10;;
789;SDS011;378;48.844;9.156;2023-04-25T04:27:36;7.97;;;4.50;;
789;SDS011;378;48.844;9.156;2023-04-25T04:30:06;5.30;;;4.10;;
789;SDS011;378;48.844;9.156;2023-04-25T04:32:34;9.77;;;3.53;;
789;SDS011;378;48.844;9.156;2023-04-25T04:35:02;5.15;;;3.25;;
789;SDS011;378;48.844;9.156;2023-04-25T04:37:31;7.72;;;3.80;;
789;SDS011;378;48.844;9.156;2023-04-25T04:39:58;8.57;;;3.95;;
789;SDS011;378;48.844;9.156;2023-04-25T04:42:30;5.43;;;3.47;;
789;SDS011;378;48.844;9.156;2023-04-25T04:44:56;7.88;;;3.50;;
789;SDS011;378;48.844;9.156;2023-04-25T04:47:25;6.40;;;3.33;;
789;SDS011;378;48.844;9.156;2023-04-25T04:49:55;4.97;;;3.67;;
789;SDS011;378;48.844;9.156;2023-04-25T04:52:22;7.28;;;4.10;;
789;SDS011;378;48.844;9.156;2023-04-25T04:54:49;7.97;;;3.33;;
789;SDS011;378;48.844;9.156;2023-04-25T04:57:16;8.52;;;3.60;;
789;SDS011;378;48.844;9.156;2023-04-25T04:59:43;6.07;;;3.30;;
789;SDS011;378;48.844;9.156;2023-04-25T05:02:10;5.60;;;3.35;;
789;SDS011;378;48.844;9.156;2023-04-25T05:04:38;7.45;;;3.00;;
789;SDS011;378;48.844;9.156;2023-04-25T05:07:04;6.80;;;3.28;;
789;SDS011;378;48.844;9.156;2023-04-25T05:09:31;6.50;;;3.80;;
789;SDS011;378;48.844;9.156;2023-04-25T05:11:58;6.72;;;3.50;;
789;SDS011;378;48.844;9.156;2023-04-25T05:14:26;6.72;;;3.63;;
789;SDS011;378;48.844;9.156;2023-04-25T05:16:52;5.13;;;3.10;;
789;SDS011;378;48.844;9.156;2023-04-25T05:19:19;8.70;;;3.53;;
789;SDS011;378;48.844;9.156;2023-04-25T05:21:47;5.75;;;3.53;;
789;SDS011;378;48.844;9.156;2023-04-25T05:24:14;6.40;;;3.30;;
789;SDS011;378;48.844;9.156;2023-04-25T05:26:41;5.53;;;3.33;;
789;SDS011;378;48.844;9.156;2023-04-25T05:29:08;4.22;;;3.15;;
789;SDS011;378;48.844;9.156;2023-04-25T05:31:35;6.97;;;3.70;;
789;SDS011;378;48.844;9.156;2023-04-25T05:34:02;7.25;;;3.55;;
789;SDS011;378;48.844;9.156;2023-04-25T05:36:29;7.75;;;4.20;;
789;SDS011;378;48.844;9.156;2023-04-25T05:38:58;6.47;;;4.57;;
789;SDS011;378;48.844;9.156;2023-04-25T05:41:25;7.32;;;4.50;;
789;SDS011;378;48.844;9.156;2023-04-25T05:43:52;12.55;;;5.60;;
789;SDS011;378;48.844;9.156;2023-04-25T05:46:19;7.97;;;5.28;;
789;SDS011;378;48.844;9.156;2023-04-25T05:48:46;9.40;;;5.07;;
789;SDS011;378;48.844;9.156;2023-04-25T05:51:12;8.18;;;5.40;;
789;SDS011;378;48.844;9.156;2023-04-25T05:53:39;8.70;;;5.40;;
789;SDS011;378;48.844;9.156;2023-04-25T05:56:07;9.80;;;5.47;;
789;SDS011;378;48.844;9.156;2023-04-25T05:58:34;9.70;;;5.40;;
789;SDS011;378;48.844;9.156;2023-04-25T06:01:01;8.73;;;5.22;;
789;SDS011;378;48.844;9.156;2023-04-25T06:03:28;8.57;;;5.32;;
789;SDS011;378;48.844;9.156;2023-04-25T06:05:55;7.95;;;5.13;;
789;SDS011;378;48.844;9.156;2023-04-25T06:08:22;10.90;;;5.30;;
789;SDS011;378;48.844;9.156;2023-04-25T06:10:49;8.57;;;4.97;;
789;SDS011;378;48.844;9.156;2023-04-25T06:13:17;9.65;;;5.18;;
789;SDS011;378;48.844;9.156;2023-04-25T06:15:44;6.45;;;4.30;;
789;SDS011;378;48.844;9.156;2023-04-25T06:18:10;8.10;;;5.32;;
789;SDS011;378;48.844;9.156;2023-04-25T06:20:37;8.35;;;4.65;;
789;SDS011;378;48.844;9.156;2023-04-25T06:23:04;8.82;;;4.63;;
789;SDS011;378;48.844;9.156;2023-04-25T06:25:31;7.20;;;4.35;;
789;SDS011;378;48.844;9.156;2023-04-25T06:27:58;8.32;;;5.00;;
789;SDS011;378;48.844;9.156;2023-04-25T06:30:26;6.97;;;4.43;;
789;SDS011;378;48.844;9.156;2023-04-25T06:32:53;6.25;;;4.03;;
789;SDS011;378;48.844;9.156;2023-04-25T06:35:20;8.18;;;4.32;;
789;SDS011;378;48.844;9.156;2023-04-25T06:37:47;6.15;;;3.63;;
789;SDS011;378;48.844;9.156;2023-04-25T06:40:13;5.88;;;3.60;;
789;SDS011;378;48.844;9.156;2023-04-25T06:42:42;5.57;;;3.92;;
789;SDS011;378;48.844;9.156;2023-04-25T06:45:09;5.07;;;3.42;;
789;SDS011;378;48.844;9.156;2023-04-25T06:47:38;5.95;;;3.65;;
789;SDS011;378;48.844;9.156;2023-04-25T06:50:05;5.75;;;3.30;;
789;SDS011;378;48.844;9.156;2023-04-25T06:52:32;5.18;;;2.85;;
789;SDS011;378;48.844;9.156;2023-04-25T06:54:59;5.22;;;3.90;;
789;SDS011;378;48.844;9.156;2023-04-25T06:57:26;6.88;;;3.30;;
789;SDS011;378;48.844;9.156;2023-04-25T06:59:53;5.00;;;3.35;;
789;SDS011;378;48.844;9.156;2023-04-25T07:02:20;4.82;;;3.28;;
789;SDS011;378;48.844;9.156;2023-04-25T07:04:48;5.22;;;3.65;;
789;SDS011;378;48.844;9.156;2023-04-25T07:07:15;5.10;;;3.60;;
789;SDS011;378;48.844;9.156;2023-04-25T07:09:43;5.10;;;3.70;;
789;SDS011;378;48.844;9.156;2023-04-25T07:12:09;9.48;;;4.40;;
789;SDS011;378;48.844;9.156;2023-04-25T07:14:36;6.13;;;3.63;;
789;SDS011;378;48.844;9.156;2023-04-25T07:17:04;7.05;;;4.03;;
789;SDS011;378;48.844;9.156;2023-04-25T07:19:31;6.05;;;3.70;;
789;SDS011;378;48.844;9.156;2023-04-25T07:22:00;6.28;;;3.97;;
789;SDS011;378;48.844;9.156;2023-04-25T07:24:27;6.85;;;4.32;;
789;SDS011;378;48.844;9.156;2023-04-25T07:26:54;9.13;;;4.07;;
789;SDS011;378;48.844;9.156;2023-04-25T07:29:21;12.68;;;4.40;;
789;SDS011;378;48.844;9.156;2023-04-25T07:31:48;6.10;;;4.47;;
789;SDS011;378;48.844;9.156;2023-04-25T07:34:15;6.97;;;4.50;;
789;SDS011;378;48.844;9.156;2023-04-25T07:36:41;7.57;;;4.82;;
789;SDS011;378;48.844;9.156;2023-04-25T07:39:11;8.00;;;4.75;;
789;SDS011;378;48.844;9.156;2023-04-25T07:41:38;9.70;;;4.70;;
789;SDS011;378;48.844;9.156;2023-04-25T07:44:04;9.30;;;4.22;;
789;SDS011;378;48.844;9.156;2023-04-25T07:46:31;6.90;;;4.25;;
789;SDS011;378;48.844;9.156;2023-04-25T07:48:58;7.35;;;4.57;;
789;SDS011;378;48.844;9.156;2023-04-25T07:51:25;11.60;;;4.47;;
789;SDS011;378;48.844;9.156;2023-04-25T07:53:52;6.72;;;3.70;;
789;SDS011;378;48.844;9.156;2023-04-25T07:56:21;6.65;;;4.60;;
789;SDS011;378;48.844;9.156;2023-04-25T07:58:47;8.77;;;4.10;;
789;SDS011;378;48.844;9.156;2023-04-25T08:01:14;8.60;;;4.65;;
789;SDS011;378;48.844;9.156;2023-04-25T08:03:41;7.15;;;4.03;;
789;SDS011;378;48.844;9.156;2023-04-25T08:06:08;6.53;;;3.80;;
789;SDS011;378;48.844;9.156;2023-04-25T08:08:35;6.07;;;3.53;;
789;SDS011;378;48.844;9.156;2023-04-25T08:11:02;5.00;;;4.10;;
789;SDS011;378;48.844;9.156;2023-04-25T08:13:30;6.40;;;4.32;;
789;SDS011;378;48.844;9.156;2023-04-25T08:15:57;7.10;;;3.95;;
789;SDS011;378;48.844;9.156;2023-04-25T08:18:24;7.53;;;4.25;;
789;SDS011;378;48.844;9.156;2023-04-25T08:20:50;8.07;;;4.43;;
789;SDS011;378;48.844;9.156;2023-04-25T08:23:17;8.05;;;4.35;;
789;SDS011;378;48.844;9.156;2023-04-25T08:25:44;7.05;;;4.45;;
789;SDS011;378;48.844;9.156;2023-04-25T08:28:11;7.43;;;4.60;;
789;SDS011;378;48.844;9.156;2023-04-25T08:30:39;5.13;;;4.15;;
789;SDS011;378;48.844;9.156;2023-04-25T08:33:06;7.10;;;4.90;;
789;SDS011;378;48.844;9.156;2023-04-25T08:35:33;6.55;;;4.40;;
789;SDS011;378;48.844;9.156;2023-04-25T08:38:00;7.00;;;4.13;;
789;SDS011;378;48.844;9.156;2023-04-25T08:40:27;6.60;;;4.20;;
789;SDS011;378;48.844;9.156;2023-04-25T08:42:55;5.93;;;4.13;;
789;SDS011;378;48.844;9.156;2023-04-25T08:45:24;7.15;;;5.15;;
789;SDS011;378;48.844;9.156;2023-04-25T08:47:54;7.22;;;5.22;;
789;SDS011;378;48.844;9.156;2023-04-25T08:50:23;8.20;;;5.38;;
789;SDS011;378;48.844;9.156;2023-04-25T08:52:51;10.90;;;5.68;;
789;SDS011;378;48.844;9.156;2023-04-25T08:55:20;7.68;;;5.43;;
789;SDS011;378;48.844;9.156;2023-04-25T08:57:47;9.30;;;6.10;;
789;SDS011;378;48.844;9.156;2023-04-25T09:00:15;14.80;;;6.03;;
789;SDS011;378;48.844;9.156;2023-04-25T09:02:44;8.60;;;5.38;;
789;SDS011;378;48.844;9.156;2023-04-25T09:05:13;9.20;;;6.03;;
789;SDS011;378;48.844;9.156;2023-04-25T09:07:40;13.68;;;6.22;;
789;SDS011;378;48.844;9.156;2023-04-25T09:10:07;10.70;;;6.50;;
789;SDS011;378;48.844;9.156;2023-04-25T09:12:35;10.13;;;6.35;;
789;SDS011;378;48.844;9.156;2023-04-25T09:15:03;12.40;;;7.03;;
789;SDS011;378;48.844;9.156;2023-04-25T09:17:31;13.73;;;6.85;;
789;SDS011;378;48.844;9.156;2023-04-25T09:20:05;8.43;;;5.97;;
789;SDS011;378;48.844;9.156;2023-04-25T09:22:35;14.63;;;6.93;;
789;SDS011;378;48.844;9.156;2023-04-25T09:25:03;11.38;;;6.97;;
789;SDS011;378;48.844;9.156;2023-04-25T09:27:33;13.32;;;6.95;;
789;SDS011;378;48.844;9.156;2023-04-25T09:30:00;14.13;;;7.55;;
789;SDS011;378;48.844;9.156;2023-04-25T09:32:27;12.75;;;6.88;;
789;SDS011;378;48.844;9.156;2023-04-25T09:34:55;12.02;;;7.63;;
789;SDS011;378;48.844;9.156;2023-04-25T09:37:23;14.80;;;8.15;;
789;SDS011;378;48.844;9.156;2023-04-25T09:39:54;16.27;;;9.05;;
789;SDS011;378;48.844;9.156;2023-04-25T09:42:22;13.82;;;8.68;;
789;SDS011;378;48.844;9.156;2023-04-25T09:44:51;13.80;;;8.75;;
789;SDS011;378;48.844;9.156;2023-04-25T09:47:19;18.55;;;9.07;;
789;SDS011;378;48.844;9.156;2023-04-25T09:49:48;17.10;;;8.52;;
789;SDS011;378;48.844;9.156;2023-04-25T09:52:17;16.05;;;8.80;;
789;SDS011;378;48.844;9.156;2023-04-25T09:54:44;17.25;;;9.55;;
789;SDS011;378;48.844;9.156;2023-04-25T09:57:15;13.40;;;7.25;;
789;SDS011;378;48.844;9.156;2023-04-25T09:59:43;10.35;;;6.10;;
789;SDS011;378;48.844;9.156;2023-04-25T10:02:11;9.18;;;4.85;;
789;SDS011;378;48.844;9.156;2023-04-25T10:04:39;10.38;;;5.90;;
789;SDS011;378;48.844;9.156;2023-04-25T10:07:07;9.57;;;5.13;;
789;SDS011;378;48.844;9.156;2023-04-25T10:09:36;8.63;;;5.30;;
789;SDS011;378;48.844;9.156;2023-04-25T10:12:04;7.30;;;4.55;;
789;SDS011;378;48.844;9.156;2023-04-25T10:14:33;7.55;;;3.67;;
789;SDS011;378;48.844;9.156;2023-04-25T10:17:00;4.57;;;3.13;;
789;SDS011;378;48.844;9.156;2023-04-25T10:19:28;7.78;;;4.35;;
789;SDS011;378;48.844;9.156;2023-04-25T10:21:56;6.15;;;3.58;;
789;SDS011;378;48.844;9.156;2023-04-25T10:24:29;6.45;;;3.92;;
789;SDS011;378;48.844;9.156;2023-04-25T10:26:56;3.83;;;2.75;;
789;SDS011;378;48.844;9.156;2023-04-25T10:29:24;6.13;;;3.42;;
789;SDS011;378;48.844;9.156;2023-04-25T10:31:53;10.60;;;4.32;;
789;SDS011;378;48.844;9.156;2023-04-25T10:34:23;11.15;;;5.25;;
789;SDS011;378;48.844;9.156;2023-04-25T10:37:03;13.15;;;6.07;;
789;SDS011;378;48.844;9.156;2023-04-25T10:39:30;10.32;;;6.05;;
789;SDS011;378;48.844;9.156;2023-04-25T10:41:59;13.18;;;6.15;;
789;SDS011;378;48.844;9.156;2023-04-25T10:44:29;9.45;;;6.03;;
789;SDS011;378;48.844;9.156;2023-04-25T10:46:58;9.68;;;5.82;;
789;SDS011;378;48.844;9.156;2023-04-25T10:49:30;7.03;;;4.53;;
789;SDS011;378;48.844;9.156;2023-04-25T10:52:11;6.68;;;4.53;;
789;SDS011;378;48.844;9.156;2023-04-25T10:54:42;7.35;;;4.38;;
789;SDS011;378;48.844;9.156;2023-04-25T10:59:57;8.60;;;4.78;;
789;SDS011;378;48.844;9.156;2023-04-25T11:02:27;11.85;;;5.05;;
789;SDS011;378;48.844;9.156;2023-04-25T11:04:54;9.45;;;4.57;;
789;SDS011;378;48.844;9.156;2023-04-25T11:07:23;9.20;;;4.35;;
789;SDS011;378;48.844;9.156;2023-04-25T11:09:58;6.50;;;3.95;;
789;SDS011;378;48.844;9.156;2023-04-25T11:12:29;8.23;;;4.75;;
789;SDS011;378;48.844;9.156;2023-04-25T11:14:59;7.18;;;4.00;;
789;SDS011;378;48.844;9.156;2023-04-25T11:17:29;7.68;;;4.75;;
789;SDS011;378;48.844;9.156;2023-04-25T11:19:56;7.65;;;4.40;;
789;SDS011;378;48.844;9.156;2023-04-25T11:22:23;6.45;;;4.35;;
789;SDS011;378;48.844;9.156;2023-04-25T11:24:50;10.50;;;4.35;;
789;SDS011;378;48.844;9.156;2023-04-25T11:27:16;7.07;;;4.38;;
789;SDS011;378;48.844;9.156;2023-04-25T11:29:44;6.03;;;3.88;;
789;SDS011;378;48.844;9.156;2023-04-25T11:32:12;6.20;;;4.00;;
789;SDS011;378;48.844;9.156;2023-04-25T11:34:42;6.57;;;3.85;;
789;SDS011;378;48.844;9.156;2023-04-25T11:37:11;5.25;;;3.30;;
789;SDS011;378;48.844;9.156;2023-04-25T11:39:39;5.30;;;3.30;;
789;SDS011;378;48.844;9.156;2023-04-25T11:42:12;6.63;;;3.72;;
789;SDS011;378;48.844;9.156;2023-04-25T11:44:39;5.95;;;4.22;;
789;SDS011;378;48.844;9.156;2023-04-25T11:47:06;9.30;;;4.70;;
789;SDS011;378;48.844;9.156;2023-04-25T11:49:33;7.75;;;4.72;;
789;SDS011;378;48.844;9.156;2023-04-25T11:52:03;9.23;;;4.57;;
789;SDS011;378;48.844;9.156;2023-04-25T11:54:34;8.50;;;5.03;;
789;SDS011;378;48.844;9.156;2023-04-25T11:57:02;9.77;;;4.53;;
789;SDS011;378;48.844;9.156;2023-04-25T11:59:29;8.50;;;4.97;;
789;SDS011;378;48.844;9.156;2023-04-25T12:01:56;10.40;;;4.45;;
789;SDS011;378;48.844;9.156;2023-04-25T12:04:24;6.63;;;4.35;;
789;SDS011;378;48.844;9.156;2023-04-25T12:06:52;7.72;;;4.25;;
789;SDS011;378;48.844;9.156;2023-04-25T12:09:27;7.22;;;4.70;;
789;SDS011;378;48.844;9.156;2023-04-25T12:11:55;8.43;;;4.90;;
789;SDS011;378;48.844;9.156;2023-04-25T12:14:23;9.13;;;5.50;;
789;SDS011;378;48.844;9.156;2023-04-25T12:16:57;9.77;;;6.20;;
789;SDS011;378;48.844;9.156;2023-04-25T12:19:24;10.43;;;6.00;;
789;SDS011;378;48.844;9.156;2023-04-25T12:21:52;14.90;;;6.13;;
789;SDS011;378;48.844;9.156;2023-04-25T12:24:22;12.35;;;7.13;;
789;SDS011;378;48.844;9.156;2023-04-25T12:26:52;15.35;;;7.60;;
789;SDS011;378;48.844;9.156;2023-04-25T12:29:20;15.50;;;6.70;;
789;SDS011;378;48.844;9.156;2023-04-25T12:31:49;11.63;;;7.40;;
789;SDS011;378;48.844;9.156;2023-04-25T12:34:17;12.60;;;6.97;;
789;SDS011;378;48.844;9.156;2023-04-25T12:36:44;15.27;;;6.68;;
789;SDS011;378;48.844;9.156;2023-04-25T12:39:14;10.48;;;6.18;;
789;SDS011;378;48.844;9.156;2023-04-25T12:41:43;11.77;;;6.20;;
789;SDS011;378;48.844;9.156;2023-04-25T12:44:10;11.10;;;6.65;;
789;SDS011;378;48.844;9.156;2023-04-25T12:46:37;12.00;;;6.65;;
789;SDS011;378;48.844;9.156;2023-04-25T12:49:05;12.38;;;6.50;;
789;SDS011;378;48.844;9.156;2023-04-25T12:51:33;13.63;;;6.32;;
789;SDS011;378;48.844;9.156;2023-04-25T12:54:00;12.68;;;7.38;;
789;SDS011;378;48.844;9.156;2023-04-25T12:56:27;11.02;;;5.93;;
789;SDS011;378;48.844;9.156;2023-04-25T12:58:56;9.70;;;5.15;;
789;SDS011;378;48.844;9.156;2023-04-25T13:01:23;8.73;;;5.20;;
789;SDS011;378;48.844;9.156;2023-04-25T13:03:51;7.10;;;5.00;;
789;SDS011;378;48.844;9.156;2023-04-25T13:06:19;11.75;;;5.47;;
789;SDS011;378;48.844;9.156;2023-04-25T13:08:47;10.38;;;5.25;;
789;SDS011;378;48.844;9.156;2023-04-25T13:11:14;8.95;;;5.28;;
789;SDS011;378;48.844;9.156;2023-04-25T13:13:41;9.23;;;5.53;;
789;SDS011;378;48.844;9.156;2023-04-25T13:16:09;8.93;;;5.55;;
789;SDS011;378;48.844;9.156;2023-04-25T13:18:36;11.63;;;5.95;;
789;SDS011;378;48.844;9.156;2023-04-25T13:21:03;10.65;;;5.68;;
789;SDS011;378;48.844;9.156;2023-04-25T13:23:30;11.88;;;6.95;;
789;SDS011;378;48.844;9.156;2023-04-25T13:25:57;15.63;;;7.40;;
789;SDS011;378;48.844;9.156;2023-04-25T13:28:25;11.50;;;7.22;;
789;SDS011;378;48.844;9.156;2023-04-25T13:30:52;14.15;;;7.45;;
789;SDS011;378;48.844;9.156;2023-04-25T13:33:20;13.95;;;8.50;;
789;SDS011;378;48.844;9.156;2023-04-25T13:35:48;16.63;;;9.05;;
789;SDS011;378;48.844;9.156;2023-04-25T13:38:19;19.98;;;9.52;;
789;SDS011;378;48.844;9.156;2023-04-25T13:40:47;16.88;;;9.23;;
789;SDS011;378;48.844;9.156;2023-04-25T13:43:14;18.85;;;9.10;;
789;SDS011;378;48.844;9.156;2023-04-25T13:45:41;13.98;;;8.00;;
789;SDS011;378;48.844;9.156;2023-04-25T13:48:08;18.67;;;9.57;;
789;SDS011;378;48.844;9.156;2023-04-25T13:50:36;17.63;;;8.73;;
789;SDS011;378;48.844;9.156;2023-04-25T13:53:03;12.68;;;7.95;;
789;SDS011;378;48.844;9.156;2023-04-25T13:55:30;21.42;;;8.93;;
789;SDS011;378;48.844;9.156;2023-04-25T13:57:57;12.13;;;7.07;;
789;SDS011;378;48.844;9.156;2023-04-25T14:00:24;10.80;;;6.30;;
789;SDS011;378;48.844;9.156;2023-04-25T14:02:51;12.85;;;6.75;;
789;SDS011;378;48.844;9.156;2023-04-25T14:05:18;14.23;;;7.18;;
789;SDS011;378;48.844;9.156;2023-04-25T14:07:46;8.23;;;5.75;;
789;SDS011;378;48.844;9.156;2023-04-25T14:10:13;11.15;;;6.70;;
789;SDS011;378;48.844;9.156;2023-04-25T14:12:40;10.95;;;6.60;;
789;SDS011;378;48.844;9.156;2023-04-25T14:15:07;8.90;;;5.28;;
789;SDS011;378;48.844;9.156;2023-04-25T14:17:34;9.55;;;4.93;;
789;SDS011;378;48.844;9.156;2023-04-25T14:20:01;6.65;;;4.55;;
789;SDS011;378;48.844;9.156;2023-04-25T14:22:30;7.55;;;4.45;;
789;SDS011;378;48.844;9.156;2023-04-25T14:24:59;5.40;;;3.78;;
789;SDS011;378;48.844;9.156;2023-04-25T14:27:25;6.70;;;3.83;;
789;SDS011;378;48.844;9.156;2023-04-25T14:29:53;8.13;;;5.40;;
789;SDS011;378;48.844;9.156;2023-04-25T14:32:19;9.48;;;5.32;;
789;SDS011;378;48.844;9.156;2023-04-25T14:34:46;8.57;;;5.32;;
789;SDS011;378;48.844;9.156;2023-04-25T14:37:13;9.85;;;4.93;;
789;SDS011;378;48.844;9.156;2023-04-25T14:39:41;10.45;;;5.13;;
789;SDS011;378;48.844;9.156;2023-04-25T14:42:09;10.52;;;4.97;;
789;SDS011;378;48.844;9.156;2023-04-25T14:44:36;11.88;;;5.70;;
789;SDS011;378;48.844;9.156;2023-04-25T14:47:04;11.68;;;5.90;;
789;SDS011;378;48.844;9.156;2023-04-25T14:49:31;8.38;;;4.53;;
789;SDS011;378;48.844;9.156;2023-04-25T14:51:58;6.50;;;4.50;;
789;SDS011;378;48.844;9.156;2023-04-25T14:54:26;8.07;;;4.43;;
789;SDS011;378;48.844;9.156;2023-04-25T14:56:52;9.38;;;4.93;;
789;SDS011;378;48.844;9.156;2023-04-25T14:59:21;11.02;;;5.40;;
789;SDS011;378;48.844;9.156;2023-04-25T15:01:50;8.30;;;4.68;;
789;SDS011;378;48.844;9.156;2023-04-25T15:04:16;9.27;;;4.35;;
789;SDS011;378;48.844;9.156;2023-04-25T15:06:43;7.82;;;4.38;;
789;SDS011;378;48.844;9.156;2023-04-25T15:09:10;7.60;;;4.15;;
789;SDS011;378;48.844;9.156;2023-04-25T15:11:37;10.70;;;4.28;;
789;SDS011;378;48.844;9.156;2023-04-25T15:14:04;5.90;;;4.20;;
789;SDS011;378;48.844;9.156;2023-04-25T15:16:32;7.57;;;3.58;;
789;SDS011;378;48.844;9.156;2023-04-25T15:18:59;8.13;;;4.22;;
789;SDS011;378;48.844;9.156;2023-04-25T15:21:29;8.43;;;4.15;;
789;SDS011;378;48.844;9.156;2023-04-25T15:23:56;5.90;;;3.63;;
789;SDS011;378;48.844;9.156;2023-04-25T15:26:23;7.40;;;3.70;;
789;SDS011;378;48.844;9.156;2023-04-25T15:28:50;10.38;;;4.13;;
789;SDS011;378;48.844;9.156;2023-04-25T15:31:17;9.38;;;4.72;;
789;SDS011;378;48.844;9.156;2023-04-25T15:33:45;7.43;;;4.53;;
789;SDS011;378;48.844;9.156;2023-04-25T15:36:12;10.82;;;4.40;;
789;SDS011;378;48.844;9.156;2023-04-25T15:38:41;10.63;;;4.72;;
789;SDS011;378;48.844;9.156;2023-04-25T15:41:08;9.73;;;4.53;;
789;SDS011;378;48.844;9.156;2023-04-25T15:43:35;9.88;;;4.18;;
789;SDS011;378;48.844;9.156;2023-04-25T15:46:03;7.25;;;4.60;;
789;SDS011;378;48.844;9.156;2023-04-25T15:48:30;8.90;;;5.03;;